Time;durP1;ratioP1;P1;durP2;ratioP2;P2;SDS_P1;SDS_P2;PMS_P1;PMS_P2;Temp;Humidity;BMP_temperature;BMP_pressure;BME280_temperature;BME280_humidity;BME280_pressure;Samples;Min_cycle;Max_cycle;Signal;HPM_P1;HPM_P2
2024/01/31 00:01:52;;;;;;;;;;;8.40;99.90;;;;;;6771745;87;20593;-78
2024/01/31 00:11:52;;;;;;;;;;;8.40;99.90;;;;;;6774859;87;20079;-78
2024/01/31 00:21:53;;;;;;;;;;;8.40;99.90;;;;;;6774503;87;20190;-77
2024/01/31 00:31:53;;;;;;;;;;;8.30;99.90;;;;;;6726386;87;20065;-78
2024/01/31 00:41:54;;;;;;;;;;;8.20;99.90;;;;;;6754198;87;20073;-78
2024/01/31 00:51:55;;;;;;;;;;;8.20;99.90;;;;;;6745928;87;20151;-79
2024/01/31 01:01:55;;;;;;;;;;;8.20;99.90;;;;;;6771412;87;20077;-79
2024/01/31 01:11:56;;;;;;;;;;;8.10;99.90;;;;;;6776374;87;20072;-79
2024/01/31 01:21:56;;;;;;;;;;;8.20;99.90;;;;;;6761909;87;20152;-79
2024/01/31 01:31:57;;;;;;;;;;;8.00;99.90;;;;;;6769831;87;20053;-79
2024/01/31 01:41:57;;;;;;;;;;;8.00;99.90;;;;;;6761059;87;20065;-79
2024/01/31 01:51:58;;;;;;;;;;;8.00;99.90;;;;;;6770884;87;20726;-78
2024/01/31 02:01:59;;;;;;;;;;;7.90;99.90;;;;;;6757511;87;20067;-78
2024/01/31 02:11:59;;;;;;;;;;;7.80;99.90;;;;;;6755517;87;20914;-78
2024/01/31 02:22:01;;;;;;;;;;;7.80;99.90;;;;;;6770675;87;20083;-79
2024/01/31 02:32:02;;;;;;;;;;;7.80;99.90;;;;;;6772703;87;20127;-79
2024/01/31 02:42:02;;;;;;;;;;;7.80;99.90;;;;;;6771558;87;20060;-78
2024/01/31 02:52:03;;;;;;;;;;;7.80;99.90;;;;;;6776912;87;20045;-79
2024/01/31 03:02:05;;;;;;;;;;;7.80;99.90;;;;;;6768067;87;20084;-78
2024/01/31 03:12:05;;;;;;;;;;;7.70;99.90;;;;;;6770151;87;20114;-77
2024/01/31 03:22:06;;;;;;;;;;;7.70;99.90;;;;;;6773974;87;20041;-78
2024/01/31 03:32:06;;;;;;;;;;;7.60;99.90;;;;;;6773553;87;20040;-79
2024/01/31 03:42:07;;;;;;;;;;;7.50;99.90;;;;;;6773187;87;20160;-78
2024/01/31 03:52:07;;;;;;;;;;;7.60;99.90;;;;;;6770997;87;20060;-78
2024/01/31 04:02:08;;;;;;;;;;;7.50;99.90;;;;;;6768515;87;20910;-78
2024/01/31 04:12:08;;;;;;;;;;;7.40;99.90;;;;;;6767149;87;20107;-78
2024/01/31 04:22:09;;;;;;;;;;;7.40;99.90;;;;;;6763953;87;20063;-79
2024/01/31 04:32:09;;;;;;;;;;;7.40;99.90;;;;;;6769681;87;20143;-78
2024/01/31 04:42:09;;;;;;;;;;;7.40;99.90;;;;;;6774251;87;20060;-78
2024/01/31 04:52:11;;;;;;;;;;;7.40;99.90;;;;;;6764982;87;20078;-78
2024/01/31 05:02:11;;;;;;;;;;;7.40;99.90;;;;;;6763649;87;20079;-78
2024/01/31 05:12:12;;;;;;;;;;;7.30;99.90;;;;;;6772023;87;20066;-78
2024/01/31 05:22:12;;;;;;;;;;;7.20;99.90;;;;;;6773086;87;20073;-78
2024/01/31 05:32:13;;;;;;;;;;;7.20;99.90;;;;;;6792726;87;20367;-79
2024/01/31 05:42:14;;;;;;;;;;;7.30;99.90;;;;;;6771679;87;20160;-79
2024/01/31 05:52:15;;;;;;;;;;;7.30;99.90;;;;;;6773932;87;20131;-78
2024/01/31 06:02:15;;;;;;;;;;;7.20;99.90;;;;;;6774554;87;20187;-77
2024/01/31 06:12:15;;;;;;;;;;;7.20;99.90;;;;;;6776513;87;20097;-77
2024/01/31 06:22:16;;;;;;;;;;;7.20;99.90;;;;;;6771931;87;20106;-77
2024/01/31 06:32:21;;;;;;;;;;;7.10;99.90;;;;;;6783495;87;20236;-78
2024/01/31 06:42:21;;;;;;;;;;;7.10;99.90;;;;;;6767607;87;20060;-78
2024/01/31 06:52:22;;;;;;;;;;;7.00;99.90;;;;;;6786360;87;21035;-77
2024/01/31 07:02:22;;;;;;;;;;;7.00;99.90;;;;;;6777440;87;20056;-78
2024/01/31 07:12:23;;;;;;;;;;;7.00;99.90;;;;;;6773685;87;20090;-78
2024/01/31 07:22:23;;;;;;;;;;;7.00;99.90;;;;;;6777054;87;20714;-78
2024/01/31 07:32:24;;;;;;;;;;;7.10;99.90;;;;;;6777139;87;20078;-78
2024/01/31 07:42:26;;;;;;;;;;;7.00;99.90;;;;;;6769342;87;20045;-78
2024/01/31 07:52:26;;;;;;;;;;;7.10;99.90;;;;;;6778297;87;20271;-78
2024/01/31 08:02:27;;;;;;;;;;;7.10;99.90;;;;;;6775772;87;20577;-77
2024/01/31 08:12:27;;;;;;;;;;;7.10;99.90;;;;;;6780120;87;20125;-79
2024/01/31 08:22:28;;;;;;;;;;;7.10;99.90;;;;;;6776764;77;20520;-75
2024/01/31 08:32:30;;;;;;;;;;;7.20;99.90;;;;;;6751974;87;20594;-75
2024/01/31 08:42:31;;;;;;;;;;;7.30;99.90;;;;;;6744835;87;20128;-76
2024/01/31 08:52:32;;;;;;;;;;;7.40;99.90;;;;;;6749451;88;20086;-75
2024/01/31 09:02:32;;;;;;;;;;;7.60;99.90;;;;;;6744355;88;20070;-75
2024/01/31 09:12:33;;;;;;;;;;;7.70;99.90;;;;;;6744879;88;20092;-75
2024/01/31 09:22:33;;;;;;;;;;;7.70;99.90;;;;;;6749985;87;20195;-75
2024/01/31 09:32:34;;;;;;;;;;;7.80;99.90;;;;;;6748253;87;20078;-75
2024/01/31 09:42:34;;;;;;;;;;;7.80;99.90;;;;;;6747882;88;20221;-75
2024/01/31 09:52:35;;;;;;;;;;;7.80;99.90;;;;;;6749944;88;20903;-76
2024/01/31 10:02:36;;;;;;;;;;;7.90;99.90;;;;;;6749006;88;20145;-75
2024/01/31 10:12:38;;;;;;;;;;;7.90;99.90;;;;;;6751180;88;20181;-75
2024/01/31 10:22:39;;;;;;;;;;;7.90;99.90;;;;;;6747250;87;20196;-75
2024/01/31 10:32:40;;;;;;;;;;;8.00;99.90;;;;;;6742361;88;20104;-75
2024/01/31 10:42:42;;;;;;;;;;;8.00;99.90;;;;;;6741064;87;20123;-75
2024/01/31 10:52:43;;;;;;;;;;;8.20;99.90;;;;;;6745064;88;20597;-75
2024/01/31 11:02:43;;;;;;;;;;;8.40;99.90;;;;;;6750290;87;20098;-75
2024/01/31 11:12:54;;;;;;;;;;;8.30;99.90;;;;;;6750379;88;20192;-75
2024/01/31 11:22:54;;;;;;;;;;;8.30;99.90;;;;;;6745516;87;20066;-76
2024/01/31 11:32:55;;;;;;;;;;;8.40;99.90;;;;;;6748296;88;20066;-75
2024/01/31 11:42:56;;;;;;;;;;;8.50;99.90;;;;;;6750555;87;20076;-75
2024/01/31 11:52:57;;;;;;;;;;;8.50;99.90;;;;;;6752698;88;20052;-76
2024/01/31 12:02:58;;;;;;;;;;;8.40;99.90;;;;;;6746409;88;20055;-76
2024/01/31 12:13:00;;;;;;;;;;;8.50;99.90;;;;;;6741769;88;20053;-75
2024/01/31 12:23:00;;;;;;;;;;;8.30;99.90;;;;;;6749884;87;20111;-75
2024/01/31 12:33:02;;;;;;;;;;;8.20;99.90;;;;;;6745560;88;20175;-75
2024/01/31 12:43:03;;;;;;;;;;;8.30;99.90;;;;;;6742886;88;20062;-75
2024/01/31 12:53:03;;;;;;;;;;;8.40;99.90;;;;;;6753124;88;20120;-76
2024/01/31 13:03:04;;;;;;;;;;;8.50;99.90;;;;;;6750221;88;20700;-75
2024/01/31 13:13:05;;;;;;;;;;;8.50;99.90;;;;;;6746731;88;20628;-75
2024/01/31 13:23:06;;;;;;;;;;;8.60;99.90;;;;;;6753293;87;20232;-75
2024/01/31 13:33:06;;;;;;;;;;;8.50;99.90;;;;;;6747349;88;20051;-75
2024/01/31 13:43:06;;;;;;;;;;;8.50;99.90;;;;;;6744295;87;20217;-75
2024/01/31 13:53:07;;;;;;;;;;;8.50;99.90;;;;;;6747017;88;20492;-75
2024/01/31 14:03:07;;;;;;;;;;;8.40;99.90;;;;;;6746819;88;20092;-75
2024/01/31 14:13:08;;;;;;;;;;;8.30;99.90;;;;;;6749744;88;20541;-74
2024/01/31 14:23:09;;;;;;;;;;;8.50;99.90;;;;;;6750429;87;20066;-75
2024/01/31 14:33:09;;;;;;;;;;;8.40;99.90;;;;;;6745326;88;20114;-75
2024/01/31 14:43:09;;;;;;;;;;;8.50;99.90;;;;;;6745274;87;20050;-75
2024/01/31 14:53:10;;;;;;;;;;;8.30;99.90;;;;;;6749404;88;20102;-75
2024/01/31 15:03:10;;;;;;;;;;;8.30;99.90;;;;;;6745337;88;20237;-74
2024/01/31 15:13:11;;;;;;;;;;;8.20;99.90;;;;;;6750758;88;20082;-75
2024/01/31 15:23:11;;;;;;;;;;;8.20;99.90;;;;;;6748876;87;20500;-75
2024/01/31 15:33:12;;;;;;;;;;;8.20;99.90;;;;;;6748583;88;20662;-74
2024/01/31 15:43:12;;;;;;;;;;;8.30;99.90;;;;;;6750634;87;20541;-74
2024/01/31 15:53:13;;;;;;;;;;;8.30;99.90;;;;;;6749132;88;20279;-75
2024/01/31 16:03:13;;;;;;;;;;;7.90;99.90;;;;;;6743351;88;20075;-75
2024/01/31 16:13:15;;;;;;;;;;;7.70;99.90;;;;;;6748022;88;20066;-75
2024/01/31 16:23:15;;;;;;;;;;;7.40;99.90;;;;;;6748876;88;20601;-75
2024/01/31 16:33:16;;;;;;;;;;;7.10;99.90;;;;;;6747732;88;20232;-73
2024/01/31 16:43:16;;;;;;;;;;;6.80;99.90;;;;;;6746045;87;20098;-75
2024/01/31 16:53:16;;;;;;;;;;;6.60;99.90;;;;;;6747717;88;20130;-74
2024/01/31 17:03:17;;;;;;;;;;;6.40;99.90;;;;;;6737952;88;20574;-74
2024/01/31 17:13:19;;;;;;;;;;;5.90;99.90;;;;;;6744810;88;20054;-74
2024/01/31 17:23:19;;;;;;;;;;;5.70;99.90;;;;;;6742275;87;20061;-74
2024/01/31 17:33:20;;;;;;;;;;;5.60;99.90;;;;;;6742074;88;20070;-75
2024/01/31 17:43:24;;;;;;;;;;;5.40;99.90;;;;;;6743655;87;20195;-77
2024/01/31 17:53:25;;;;;;;;;;;5.30;99.90;;;;;;6740792;88;20057;-75
2024/01/31 18:03:25;;;;;;;;;;;5.30;99.90;;;;;;6749978;88;20602;-73
2024/01/31 18:13:25;;;;;;;;;;;5.20;99.90;;;;;;6747777;87;20065;-74
2024/01/31 18:23:27;;;;;;;;;;;4.70;99.90;;;;;;6741330;87;20520;-76
2024/01/31 18:33:27;;;;;;;;;;;4.40;99.90;;;;;;6742061;87;20207;-78
2024/01/31 18:43:28;;;;;;;;;;;4.20;99.90;;;;;;6744939;88;20288;-78
2024/01/31 18:53:29;;;;;;;;;;;4.00;99.90;;;;;;6738288;88;20590;-74
2024/01/31 19:03:30;;;;;;;;;;;4.00;99.90;;;;;;6744535;87;20116;-75
2024/01/31 19:13:31;;;;;;;;;;;3.80;99.90;;;;;;6746951;87;20187;-77
2024/01/31 19:23:31;;;;;;;;;;;3.80;99.90;;;;;;6744978;87;20192;-75
2024/01/31 19:33:32;;;;;;;;;;;3.80;99.90;;;;;;6744822;87;20762;-77
2024/01/31 19:43:32;;;;;;;;;;;4.40;99.90;;;;;;6735841;87;20111;-75
2024/01/31 19:53:33;;;;;;;;;;;4.70;99.90;;;;;;6742058;87;20090;-75
2024/01/31 20:03:34;;;;;;;;;;;4.70;99.90;;;;;;6740318;87;20631;-74
2024/01/31 20:13:35;;;;;;;;;;;4.70;99.90;;;;;;6740919;87;20043;-75
2024/01/31 20:23:35;;;;;;;;;;;4.20;99.90;;;;;;6738101;87;20123;-75
2024/01/31 20:33:36;;;;;;;;;;;3.60;99.90;;;;;;6736778;87;20592;-76
2024/01/31 20:43:36;;;;;;;;;;;3.20;99.90;;;;;;6740279;87;20083;-73
2024/01/31 20:53:37;;;;;;;;;;;3.00;99.90;;;;;;6736733;87;20190;-75
2024/01/31 21:03:37;;;;;;;;;;;2.90;99.90;;;;;;6733783;87;20058;-74
2024/01/31 21:13:38;;;;;;;;;;;3.00;99.90;;;;;;6741801;87;20132;-75
2024/01/31 21:23:38;;;;;;;;;;;3.40;99.90;;;;;;6734602;87;20545;-75
2024/01/31 21:33:39;;;;;;;;;;;3.80;99.90;;;;;;6737168;87;20120;-75
2024/01/31 21:43:39;;;;;;;;;;;4.10;99.90;;;;;;6736454;87;20050;-75
2024/01/31 21:53:39;;;;;;;;;;;4.40;99.90;;;;;;6738351;87;20720;-74
2024/01/31 22:03:40;;;;;;;;;;;4.60;99.90;;;;;;6743217;87;20093;-74
2024/01/31 22:13:40;;;;;;;;;;;4.80;99.90;;;;;;6736818;87;20112;-74
2024/01/31 22:23:42;;;;;;;;;;;4.80;99.90;;;;;;6738631;87;20126;-74
2024/01/31 22:33:42;;;;;;;;;;;4.90;99.90;;;;;;6756476;77;20072;-76
2024/01/31 22:43:43;;;;;;;;;;;5.00;99.90;;;;;;6759563;87;20062;-77
2024/01/31 22:53:43;;;;;;;;;;;5.10;99.90;;;;;;6751748;87;20083;-76
2024/01/31 23:03:44;;;;;;;;;;;5.10;99.90;;;;;;6751226;87;20049;-74
2024/01/31 23:13:44;;;;;;;;;;;5.20;99.90;;;;;;6752730;87;20053;-74
2024/01/31 23:23:46;;;;;;;;;;;5.30;99.90;;;;;;6750403;87;20163;-76
2024/01/31 23:33:46;;;;;;;;;;;5.50;99.90;;;;;;6745696;87;20488;-75
2024/01/31 23:43:47;;;;;;;;;;;6.20;99.90;;;;;;6747748;87;20070;-76
2024/01/31 23:53:47;;;;;;;;;;;7.20;99.90;;;;;;6751751;87;20038;-75
